Time;durP1;ratioP1;P1;durP2;ratioP2;P2;SDS_P1;SDS_P2;PMS_P1;PMS_P2;Temp;Humidity;BMP_temperature;BMP_pressure;BME280_temperature;BME280_humidity;BME280_pressure;Samples;Min_cycle;Max_cycle;Signal;HPM_P1;HPM_P2
2024/03/28 00:01:32;;;;;;;;;;;;;;;13.97;46.43;97561.94;4944469;27;98492;-71
2024/03/28 00:03:59;;;;;;;;;;;;;;;13.94;46.37;97554.53;4928489;27;98371;-71
2024/03/28 00:06:26;;;;;;;;;;;;;;;13.92;46.11;97567.66;4948707;27;98545;-74
2024/03/28 00:08:53;;;;;;;;;;;;;;;13.91;46.36;97551.75;4947627;27;98414;-71
2024/03/28 00:11:20;;;;;;;;;;;;;;;13.89;46.22;97554.84;4944447;28;98859;-71
2024/03/28 00:13:47;;;;;;;;;;;;;;;13.87;46.07;97550.91;4947847;28;97974;-71
2024/03/28 00:16:13;;;;;;;;;;;;;;;13.84;46.42;97549.72;4942540;28;97873;-71
2024/03/28 00:18:39;;;;;;;;;;;;;;;13.83;46.17;97550.06;4955586;27;99335;-71
2024/03/28 00:21:06;;;;;;;;;;;;;;;13.81;46.25;97539.59;4980069;27;98253;-71
2024/03/28 00:23:32;;;;;;;;;;;;;;;13.80;46.22;97545.38;4978147;27;98409;-71
2024/03/28 00:25:59;;;;;;;;;;;;;;;13.78;46.10;97537.59;4965392;27;98051;-70
2024/03/28 00:28:26;;;;;;;;;;;;;;;13.77;46.38;97529.84;4977486;27;98339;-74
2024/03/28 00:30:52;;;;;;;;;;;;;;;13.73;46.23;97522.44;4967279;27;98788;-74
2024/03/28 00:33:19;;;;;;;;;;;;;;;13.72;46.42;97525.53;4974387;27;97867;-71
2024/03/28 00:35:46;;;;;;;;;;;;;;;13.70;46.24;97516.97;4966659;27;100748;-74
2024/03/28 00:38:14;;;;;;;;;;;;;;;13.69;46.13;97510.78;4950998;27;98396;-74
2024/03/28 00:40:47;;;;;;;;;;;;;;;13.67;46.23;97506.84;4947594;28;99326;-75
2024/03/28 00:43:14;;;;;;;;;;;;;;;13.65;46.16;97509.13;4968486;27;98236;-71
2024/03/28 00:45:41;;;;;;;;;;;;;;;13.63;46.20;97516.81;4947331;27;99862;-71
2024/03/28 00:48:09;;;;;;;;;;;;;;;13.61;46.54;97517.19;4937175;27;99524;-74
2024/03/28 00:50:35;;;;;;;;;;;;;;;13.59;46.16;97516.75;4945433;27;98461;-71
2024/03/28 00:53:03;;;;;;;;;;;;;;;13.57;46.40;97508.22;4964871;28;98387;-75
2024/03/28 00:55:30;;;;;;;;;;;;;;;13.55;46.18;97513.19;4964203;27;98200;-74
2024/03/28 00:57:56;;;;;;;;;;;;;;;13.53;46.35;97520.91;4961588;27;98928;-71
2024/03/28 01:00:23;;;;;;;;;;;;;;;13.53;46.54;97514.72;4949328;27;98184;-71
2024/03/28 01:02:49;;;;;;;;;;;;;;;13.50;46.60;97510.78;4979969;27;98063;-74
2024/03/28 01:05:15;;;;;;;;;;;;;;;13.48;46.37;97508.44;4966007;27;98245;-71
2024/03/28 01:07:44;;;;;;;;;;;;;;;13.47;46.13;97503.38;4969445;27;98341;-75
2024/03/28 01:10:10;;;;;;;;;;;;;;;13.45;46.51;97501.03;4932352;28;100221;-71
2024/03/28 01:12:42;;;;;;;;;;;;;;;13.44;46.46;97496.78;4951553;27;98262;-75
2024/03/28 01:15:08;;;;;;;;;;;;;;;13.42;46.31;97493.63;4948915;28;98183;-74
2024/03/28 01:17:36;;;;;;;;;;;;;;;13.41;46.59;97491.28;4967219;27;98117;-74
2024/03/28 01:20:03;;;;;;;;;;;;;;;13.39;46.54;97488.94;4951248;27;98097;-74
2024/03/28 01:22:29;;;;;;;;;;;;;;;13.37;46.40;97488.53;4949051;27;100142;-71
2024/03/28 01:24:56;;;;;;;;;;;;;;;13.36;46.58;97486.16;4961457;27;98453;-70
2024/03/28 01:27:23;;;;;;;;;;;;;;;13.34;46.34;97489.22;4964410;27;98211;-74
2024/03/28 01:29:55;;;;;;;;;;;;;;;13.34;46.58;97491.94;4944664;27;98302;-74
2024/03/28 01:32:21;;;;;;;;;;;;;;;13.33;46.31;97498.50;4962988;28;102161;-70
2024/03/28 01:34:48;;;;;;;;;;;;;;;13.31;46.56;97489.16;4950523;27;99981;-74
2024/03/28 01:37:14;;;;;;;;;;;;;;;13.29;46.18;97484.09;4964887;28;98222;-71
2024/03/28 01:39:42;;;;;;;;;;;;;;;13.28;46.57;97493.34;4946990;27;98980;-74
2024/03/28 01:42:08;;;;;;;;;;;;;;;13.26;46.24;97490.22;4955959;27;98911;-70
2024/03/28 01:44:35;;;;;;;;;;;;;;;13.24;46.70;97490.59;4964329;27;98369;-71
2024/03/28 01:47:06;;;;;;;;;;;;;;;13.24;46.73;97497.91;4951695;27;98233;-74
2024/03/28 01:49:34;;;;;;;;;;;;;;;13.22;46.45;97497.47;4955145;27;98234;-74
2024/03/28 01:52:01;;;;;;;;;;;;;;;13.21;46.37;97496.69;4948260;27;98730;-71
2024/03/28 01:54:28;;;;;;;;;;;;;;;13.20;46.36;97505.13;4928906;27;97992;-74
2024/03/28 01:56:54;;;;;;;;;;;;;;;13.19;46.66;97504.34;4932952;28;98347;-71
2024/03/28 01:59:21;;;;;;;;;;;;;;;13.18;46.69;97516.31;4945396;28;98749;-74
2024/03/28 02:01:47;;;;;;;;;;;;;;;13.19;46.39;97514.38;4932107;27;97952;-74
2024/03/28 02:04:14;;;;;;;;;;;;;;;13.17;46.56;97509.34;4947501;28;98127;-74
2024/03/28 02:06:40;;;;;;;;;;;;;;;13.16;46.58;97512.38;4945793;27;98279;-70
2024/03/28 02:09:08;;;;;;;;;;;;;;;13.16;46.73;97513.16;4949333;27;99566;-70
2024/03/28 02:11:34;;;;;;;;;;;;;;;13.17;46.39;97513.97;4937190;27;99246;-70
2024/03/28 02:14:03;;;;;;;;;;;;;;;13.17;46.40;97500.44;4947721;27;98358;-70
2024/03/28 02:16:36;;;;;;;;;;;;;;;13.18;46.76;97508.19;4926079;27;98681;-74
2024/03/28 02:19:04;;;;;;;;;;;;;;;13.17;46.47;97522.88;4961331;28;98703;-74
2024/03/28 02:21:31;;;;;;;;;;;;;;;13.19;46.51;97525.22;4946701;28;98473;-74
2024/03/28 02:23:57;;;;;;;;;;;;;;;13.19;46.63;97520.56;4949193;28;98446;-74
2024/03/28 02:26:24;;;;;;;;;;;;;;;13.20;46.65;97524.88;4930071;28;104599;-74
2024/03/28 02:28:51;;;;;;;;;;;;;;;13.21;46.75;97523.72;4955179;28;98383;-69
2024/03/28 02:31:17;;;;;;;;;;;;;;;13.22;46.64;97530.69;4926722;28;98357;-74
2024/03/28 02:33:44;;;;;;;;;;;;;;;13.24;46.44;97538.47;4908752;28;98285;-74
2024/03/28 02:36:10;;;;;;;;;;;;;;;13.24;46.45;97543.88;4941240;28;98092;-70
2024/03/28 02:38:36;;;;;;;;;;;;;;;13.25;46.77;97557.06;4925132;28;98448;-70
2024/03/28 02:41:03;;;;;;;;;;;;;;;13.26;46.77;97555.13;4934032;28;98124;-71
2024/03/28 02:43:30;;;;;;;;;;;;;;;13.29;46.71;97572.59;4954980;28;98174;-74
2024/03/28 02:45:56;;;;;;;;;;;;;;;13.30;46.47;97574.94;4946414;28;98750;-74
2024/03/28 02:48:22;;;;;;;;;;;;;;;13.30;46.56;97580.34;4943908;28;98440;-70
2024/03/28 02:50:49;;;;;;;;;;;;;;;13.32;46.50;97580.75;4928954;28;98117;-71
2024/03/28 02:53:15;;;;;;;;;;;;;;;13.33;46.45;97589.69;4927349;28;98645;-74
2024/03/28 02:55:42;;;;;;;;;;;;;;;13.34;46.38;97583.13;4940465;28;98158;-74
2024/03/28 02:58:08;;;;;;;;;;;;;;;13.35;46.58;97576.56;4924044;28;98757;-70
2024/03/28 03:00:35;;;;;;;;;;;;;;;13.35;46.67;97574.66;4933181;28;98106;-70
2024/03/28 03:03:02;;;;;;;;;;;;;;;13.36;46.40;97578.94;4914150;28;98212;-74
2024/03/28 03:05:29;;;;;;;;;;;;;;;13.38;46.68;97581.28;4930754;28;98142;-73
2024/03/28 03:07:55;;;;;;;;;;;;;;;13.36;46.42;97581.66;4946768;28;99163;-73
2024/03/28 03:10:22;;;;;;;;;;;;;;;13.39;46.79;97593.66;4937818;28;98640;-74
2024/03/28 03:12:48;;;;;;;;;;;;;;;13.40;46.45;97587.09;4931694;28;98122;-74
2024/03/28 03:15:15;;;;;;;;;;;;;;;13.40;46.55;97590.63;4910523;28;99531;-75
2024/03/28 03:17:42;;;;;;;;;;;;;;;13.40;46.69;97597.94;4950669;28;98156;-70
2024/03/28 03:20:08;;;;;;;;;;;;;;;13.41;46.43;97603.00;4949687;27;98251;-73
2024/03/28 03:22:35;;;;;;;;;;;;;;;13.41;46.48;97603.00;4946255;27;99612;-70
2024/03/28 03:25:11;;;;;;;;;;;;;;;13.41;46.46;97602.22;4949036;27;97901;-74
2024/03/28 03:35:56;;;;;;;;;;;;;;;13.41;46.91;97624.66;4952950;27;98614;-71
2024/03/28 03:38:22;;;;;;;;;;;;;;;13.41;46.52;97613.03;4949826;28;98755;-71
2024/03/28 03:40:48;;;;;;;;;;;;;;;13.41;46.74;97616.53;4969934;28;98631;-73
2024/03/28 03:43:15;;;;;;;;;;;;;;;13.42;46.59;97609.19;4949026;27;98558;-74
2024/03/28 03:45:42;;;;;;;;;;;;;;;13.41;46.69;97621.94;4947432;27;98091;-71
2024/03/28 03:48:09;;;;;;;;;;;;;;;13.41;46.52;97618.44;4953833;27;98077;-74
2024/03/28 03:50:35;;;;;;;;;;;;;;;13.41;46.83;97631.97;4949199;27;101255;-76
2024/03/28 03:53:01;;;;;;;;;;;;;;;13.40;46.51;97631.19;4948602;27;98419;-76
2024/03/28 03:55:27;;;;;;;;;;;;;;;13.41;46.69;97631.97;4968814;27;98063;-71
2024/03/28 03:57:54;;;;;;;;;;;;;;;13.39;46.90;97626.91;4929739;28;98162;-74
2024/03/28 04:00:21;;;;;;;;;;;;;;;13.39;46.93;97650.47;4944287;28;98028;-75
2024/03/28 04:02:49;;;;;;;;;;;;;;;13.38;46.69;97655.09;4924507;28;98161;-71
2024/03/28 04:05:16;;;;;;;;;;;;;;;13.38;46.73;97665.94;4926243;27;98179;-72
2024/03/28 04:07:45;;;;;;;;;;;;;;;13.36;46.88;97673.63;4942562;28;98281;-76
2024/03/28 04:10:12;;;;;;;;;;;;;;;13.35;46.68;97671.25;4946734;27;98160;-75
2024/03/28 04:12:39;;;;;;;;;;;;;;;13.34;46.67;97670.47;4935709;27;101956;-75
2024/03/28 04:15:06;;;;;;;;;;;;;;;13.32;46.73;97686.25;4938352;27;98351;-76
2024/03/28 04:17:36;;;;;;;;;;;;;;;13.31;46.91;97694.75;4962731;27;98072;-72
2024/03/28 04:20:03;;;;;;;;;;;;;;;13.30;46.71;97702.06;4972225;27;98530;-72
2024/03/28 04:22:30;;;;;;;;;;;;;;;13.28;46.90;97704.34;4966165;27;98149;-75
2024/03/28 04:24:57;;;;;;;;;;;;;;;13.26;46.83;97718.22;4959599;28;97860;-72
2024/03/28 04:27:25;;;;;;;;;;;;;;;13.24;46.63;97728.63;4931801;27;98747;-72
2024/03/28 04:29:51;;;;;;;;;;;;;;;13.23;47.00;97731.66;4930835;28;99950;-72
2024/03/28 04:32:18;;;;;;;;;;;;;;;13.22;46.62;97738.19;4948101;27;98477;-72
2024/03/28 04:34:45;;;;;;;;;;;;;;;13.20;46.59;97737.72;4930753;27;98063;-72
2024/03/28 04:37:12;;;;;;;;;;;;;;;13.18;46.68;97734.59;4937356;28;98523;-75
2024/03/28 04:39:39;;;;;;;;;;;;;;;13.16;46.93;97740.34;4947231;27;98343;-75
2024/03/28 04:42:05;;;;;;;;;;;;;;;13.14;46.67;97736.44;4933239;28;98258;-71
2024/03/28 04:44:32;;;;;;;;;;;;;;;13.13;46.74;97741.06;4959582;27;98878;-71
2024/03/28 04:46:58;;;;;;;;;;;;;;;13.12;46.86;97754.91;4943942;28;98303;-75
2024/03/28 04:49:25;;;;;;;;;;;;;;;13.10;46.84;97754.50;4948700;27;98068;-72
2024/03/28 04:51:52;;;;;;;;;;;;;;;13.08;46.71;97752.13;4942178;27;98357;-72
2024/03/28 04:54:18;;;;;;;;;;;;;;;13.07;47.05;97750.56;4927682;27;98098;-75
2024/03/28 04:56:46;;;;;;;;;;;;;;;13.05;46.87;97750.16;4946108;27;100044;-75
2024/03/28 04:59:12;;;;;;;;;;;;;;;13.03;46.64;97747.78;4958024;28;98181;-75
2024/03/28 05:01:39;;;;;;;;;;;;;;;13.01;46.95;97744.66;4950978;27;97972;-74
2024/03/28 05:04:05;;;;;;;;;;;;;;;13.01;47.07;97760.09;4946415;28;98083;-75
2024/03/28 05:06:31;;;;;;;;;;;;;;;12.99;46.91;97760.41;4946554;27;97915;-75
2024/03/28 05:08:58;;;;;;;;;;;;;;;12.98;46.60;97769.66;4935856;27;98446;-75
2024/03/28 05:11:24;;;;;;;;;;;;;;;12.97;47.00;97772.72;4950836;27;101131;-71
2024/03/28 05:13:50;;;;;;;;;;;;;;;12.95;46.79;97770.34;4932308;28;98181;-75
2024/03/28 05:16:18;;;;;;;;;;;;;;;12.95;47.10;97775.75;4934386;27;98046;-72
2024/03/28 05:18:44;;;;;;;;;;;;;;;12.93;47.01;97772.63;4948023;28;98825;-71
2024/03/28 05:21:11;;;;;;;;;;;;;;;12.92;46.83;97768.34;4944852;28;98069;-75
2024/03/28 05:23:37;;;;;;;;;;;;;;;12.93;47.04;97766.41;4926148;28;98508;-74
2024/03/28 05:26:04;;;;;;;;;;;;;;;12.92;46.91;97770.25;4928426;28;100026;-75
2024/03/28 05:28:31;;;;;;;;;;;;;;;12.91;47.02;97769.47;4945628;28;99643;-72
2024/03/28 05:30:58;;;;;;;;;;;;;;;12.91;46.93;97766.00;4945747;28;99397;-71
2024/03/28 05:33:24;;;;;;;;;;;;;;;12.91;46.75;97769.47;4926430;28;97977;-75
2024/03/28 05:35:50;;;;;;;;;;;;;;;12.91;47.03;97766.78;4930861;28;98866;-71
2024/03/28 05:38:17;;;;;;;;;;;;;;;12.90;47.10;97767.13;4926279;28;98542;-74
2024/03/28 05:40:43;;;;;;;;;;;;;;;12.89;46.93;97782.56;4919610;28;98249;-75
2024/03/28 05:43:09;;;;;;;;;;;;;;;12.88;46.87;97810.72;4927079;28;98238;-71
2024/03/28 05:45:35;;;;;;;;;;;;;;;12.86;47.07;97815.69;4929246;28;98004;-71
2024/03/28 05:48:02;;;;;;;;;;;;;;;12.86;46.98;97813.00;4905804;28;98362;-71
2024/03/28 05:50:28;;;;;;;;;;;;;;;12.84;46.87;97817.94;4943411;28;99126;-71
2024/03/28 05:52:55;;;;;;;;;;;;;;;12.84;47.07;97823.34;4943302;28;100323;-71
2024/03/28 05:55:22;;;;;;;;;;;;;;;12.83;46.87;97819.09;4931716;28;98410;-71
2024/03/28 05:57:49;;;;;;;;;;;;;;;12.85;47.20;97827.66;4912447;28;98417;-71
2024/03/28 06:00:16;;;;;;;;;;;;;;;12.86;46.94;97823.03;4929236;28;97851;-71
2024/03/28 06:02:43;;;;;;;;;;;;;;;12.87;46.67;97835.41;4930296;28;99717;-75
2024/03/28 06:05:09;;;;;;;;;;;;;;;12.87;47.01;97836.19;4920841;28;98300;-71
2024/03/28 06:07:36;;;;;;;;;;;;;;;12.88;46.80;97859.38;4926058;28;98709;-71
2024/03/28 06:10:03;;;;;;;;;;;;;;;12.87;46.99;97857.03;4943226;28;98180;-75
2024/03/28 06:12:30;;;;;;;;;;;;;;;12.87;46.70;97865.16;4920281;28;98603;-75
2024/03/28 06:14:57;;;;;;;;;;;;;;;12.87;46.92;97887.56;4928144;28;97926;-72
2024/03/28 06:17:23;;;;;;;;;;;;;;;12.86;46.78;97886.00;4929089;27;98540;-75
2024/03/28 06:19:50;;;;;;;;;;;;;;;12.88;46.87;97905.34;4930892;27;98771;-75
2024/03/28 06:22:20;;;;;;;;;;;;;;;12.88;46.90;97916.16;4944202;27;98873;-71
2024/03/28 06:24:47;;;;;;;;;;;;;;;12.88;47.06;97915.38;4937075;27;98771;-71
2024/03/28 06:27:13;;;;;;;;;;;;;;;12.89;47.03;97909.63;4940459;27;98980;-71
2024/03/28 06:29:49;;;;;;;;;;;;;;;12.89;47.01;97903.41;4942198;27;98128;-75
2024/03/28 06:32:24;;;;;;;;;;;;;;;12.91;46.96;97907.38;4939958;28;102583;-71
2024/03/28 06:34:54;;;;;;;;;;;;;;;12.93;46.63;97918.63;4940922;28;100835;-75
2024/03/28 06:37:20;;;;;;;;;;;;;;;12.95;46.75;97920.97;4941098;27;98188;-75
2024/03/28 06:39:47;;;;;;;;;;;;;;;12.97;46.51;97922.22;4935492;27;98885;-75
2024/03/28 06:42:13;;;;;;;;;;;;;;;12.99;46.69;97927.28;4932973;27;100731;-71
2024/03/28 06:44:43;;;;;;;;;;;;;;;13.01;46.63;97933.13;4937863;27;99508;-71
2024/03/28 06:47:10;;;;;;;;;;;;;;;13.03;46.69;97930.88;4960367;27;98819;-71
2024/03/28 06:49:36;;;;;;;;;;;;;;;13.03;46.85;97937.06;4945059;27;98393;-75
2024/03/28 06:52:03;;;;;;;;;;;;;;;13.06;46.72;97943.72;4940507;28;98461;-71
2024/03/28 06:54:31;;;;;;;;;;;;;;;13.15;46.56;97935.44;4962990;28;98328;-71
2024/03/28 06:56:58;;;;;;;;;;;;;;;13.25;46.45;97935.75;4927726;27;99229;-75
2024/03/28 06:59:24;;;;;;;;;;;;;;;13.39;46.54;97932.63;4943131;28;97980;-71
2024/03/28 07:01:54;;;;;;;;;;;;;;;13.51;46.20;97929.84;4927964;27;98227;-70
2024/03/28 07:04:21;;;;;;;;;;;;;;;13.65;46.39;97945.69;4944206;28;98141;-75
2024/03/28 07:06:47;;;;;;;;;;;;;;;13.71;46.27;97941.56;4941866;27;98359;-75
2024/03/28 07:09:14;;;;;;;;;;;;;;;13.81;46.48;97943.00;4943513;27;99782;-75
2024/03/28 07:11:41;;;;;;;;;;;;;;;13.85;46.55;97941.16;4945445;28;98041;-75
2024/03/28 07:14:09;;;;;;;;;;;;;;;13.86;46.22;97947.34;4928154;27;98183;-76
2024/03/28 07:16:35;;;;;;;;;;;;;;;13.90;46.24;97937.41;4944932;27;98458;-75
2024/03/28 07:19:02;;;;;;;;;;;;;;;13.93;46.43;97928.59;4924941;27;98151;-75
2024/03/28 07:21:29;;;;;;;;;;;;;;;13.98;46.57;97929.09;4962160;27;98873;-75
2024/03/28 07:23:55;;;;;;;;;;;;;;;14.02;46.25;97925.69;4941767;27;98416;-71
2024/03/28 07:26:23;;;;;;;;;;;;;;;14.03;46.48;97919.13;4941417;27;98887;-75
2024/03/28 07:28:49;;;;;;;;;;;;;;;14.03;46.61;97921.84;4959475;27;99521;-71
2024/03/28 07:31:15;;;;;;;;;;;;;;;14.03;46.48;97932.66;4954598;27;98473;-71
2024/03/28 07:33:44;;;;;;;;;;;;;;;14.00;46.33;97943.09;4945324;28;100078;-71
2024/03/28 07:36:13;;;;;;;;;;;;;;;14.00;46.66;97934.19;4943025;27;98400;-75
2024/03/28 07:38:40;;;;;;;;;;;;;;;14.03;46.71;97936.19;4932662;28;98477;-76
2024/03/28 07:41:07;;;;;;;;;;;;;;;14.06;46.52;97935.47;4925007;27;99712;-71
2024/03/28 07:43:33;;;;;;;;;;;;;;;14.08;46.54;97932.44;4940007;28;98840;-75
2024/03/28 07:46:03;;;;;;;;;;;;;;;14.11;46.34;97939.81;4938998;27;98247;-75
2024/03/28 07:48:29;;;;;;;;;;;;;;;14.13;46.50;97949.19;4959003;27;98646;-76
2024/03/28 07:50:57;;;;;;;;;;;;;;;14.15;46.56;97955.06;4929979;28;98724;-75
2024/03/28 07:53:24;;;;;;;;;;;;;;;14.18;46.37;97957.03;4943046;27;99429;-75
2024/03/28 07:55:50;;;;;;;;;;;;;;;14.23;46.04;97947.88;4947634;28;98353;-68
2024/03/28 07:58:18;;;;;;;;;;;;;;;14.30;46.55;97950.72;4908125;27;100315;-73
2024/03/28 08:00:44;;;;;;;;;;;;;;;14.40;46.48;97944.00;4903885;28;98646;-73
2024/03/28 08:03:16;;;;;;;;;;;;;;;14.50;46.45;97938.03;4961865;27;98292;-72
2024/03/28 08:05:43;;;;;;;;;;;;;;;14.68;45.83;97938.44;4929296;27;99752;-72
2024/03/28 08:08:10;;;;;;;;;;;;;;;14.89;45.87;97948.94;4957292;27;98304;-71
2024/03/28 08:10:37;;;;;;;;;;;;;;;15.09;45.76;97947.81;4943121;27;98214;-71
2024/03/28 08:13:04;;;;;;;;;;;;;;;15.31;45.61;97951.72;4942705;27;99739;-75
2024/03/28 08:15:33;;;;;;;;;;;;;;;15.52;45.53;97951.31;4945469;27;98248;-70
2024/03/28 08:18:03;;;;;;;;;;;;;;;15.73;45.53;97945.53;4925311;27;98436;-71
2024/03/28 08:20:29;;;;;;;;;;;;;;;15.88;45.33;97939.22;4945551;28;98051;-70
2024/03/28 08:22:56;;;;;;;;;;;;;;;16.17;45.07;97936.94;4936517;28;98749;-74
2024/03/28 08:25:23;;;;;;;;;;;;;;;16.45;45.11;97936.56;4940963;28;98031;-75
2024/03/28 08:27:50;;;;;;;;;;;;;;;16.64;45.08;97935.69;4938021;28;98424;-70
2024/03/28 08:30:18;;;;;;;;;;;;;;;16.92;44.89;97938.00;4952730;28;98700;-71
2024/03/28 08:32:45;;;;;;;;;;;;;;;17.13;44.75;97953.78;4933090;28;98291;-74
2024/03/28 08:35:11;;;;;;;;;;;;;;;17.26;45.04;97960.59;4928545;28;98038;-70
2024/03/28 08:37:39;;;;;;;;;;;;;;;17.37;45.00;97966.94;4928003;28;103166;-71
2024/03/28 08:40:09;;;;;;;;;;;;;;;17.51;44.96;97963.56;4930890;28;98333;-74
2024/03/28 08:42:36;;;;;;;;;;;;;;;17.67;44.83;97972.28;4944519;28;98693;-70
2024/03/28 08:45:03;;;;;;;;;;;;;;;18.04;44.60;97960.59;4961323;28;99818;-71
2024/03/28 08:47:29;;;;;;;;;;;;;;;18.27;44.55;97971.28;4954957;28;98335;-74
2024/03/28 08:49:57;;;;;;;;;;;;;;;18.35;44.65;97970.19;4946348;28;98053;-74
2024/03/28 08:52:24;;;;;;;;;;;;;;;18.43;44.60;97983.84;4930218;28;98673;-74
2024/03/28 08:54:51;;;;;;;;;;;;;;;18.69;44.35;97985.59;4928035;28;98333;-75
2024/03/28 08:57:17;;;;;;;;;;;;;;;19.27;44.07;97976.56;4937204;28;98880;-71
2024/03/28 08:59:44;;;;;;;;;;;;;;;19.91;43.66;97974.00;4948338;28;98370;-74
2024/03/28 09:02:11;;;;;;;;;;;;;;;20.96;42.72;97968.06;4942930;28;98459;-75
2024/03/28 09:04:37;;;;;;;;;;;;;;;22.05;42.23;97975.31;4943795;28;98234;-71
2024/03/28 09:07:03;;;;;;;;;;;;;;;22.22;42.44;97968.16;4943041;28;98119;-71
2024/03/28 09:09:31;;;;;;;;;;;;;;;22.15;43.06;97974.47;4945954;28;97981;-75
2024/03/28 09:11:58;;;;;;;;;;;;;;;22.29;42.98;97966.13;4959580;27;98508;-69
2024/03/28 09:14:26;;;;;;;;;;;;;;;22.88;42.80;97956.94;4925702;28;98884;-69
2024/03/28 09:16:53;;;;;;;;;;;;;;;24.07;41.71;97953.41;4941211;27;98412;-73
2024/03/28 09:19:21;;;;;;;;;;;;;;;24.39;42.08;97952.91;4939874;28;99969;-71
2024/03/28 09:21:47;;;;;;;;;;;;;;;24.91;41.84;97952.31;4947138;28;99558;-70
2024/03/28 09:24:14;;;;;;;;;;;;;;;25.43;41.75;97959.97;4925980;28;98124;-73
2024/03/28 09:26:41;;;;;;;;;;;;;;;25.63;42.08;97973.72;4941963;28;98046;-70
2024/03/28 09:29:08;;;;;;;;;;;;;;;25.48;42.33;97973.25;4919178;28;98250;-73
2024/03/28 09:31:34;;;;;;;;;;;;;;;25.82;42.37;97983.16;4928121;28;99917;-73
2024/03/28 09:34:01;;;;;;;;;;;;;;;25.63;42.91;97993.00;4943837;27;97921;-72
2024/03/28 09:36:28;;;;;;;;;;;;;;;25.90;42.59;97988.09;4921979;28;98250;-73
2024/03/28 09:38:54;;;;;;;;;;;;;;;26.95;41.64;97991.81;4926754;27;98254;-72
2024/03/28 09:41:27;;;;;;;;;;;;;;;27.07;42.06;97996.59;4925849;28;98151;-70
2024/03/28 09:44:10;;;;;;;;;;;;;;;26.85;42.38;97991.66;4950802;27;98536;-69
2024/03/28 09:46:36;;;;;;;;;;;;;;;28.23;41.18;97996.34;4938979;28;99609;-72
2024/03/28 09:49:03;;;;;;;;;;;;;;;29.24;40.76;97991.72;4943082;27;98161;-72
2024/03/28 09:51:30;;;;;;;;;;;;;;;29.48;41.09;97994.78;4946071;27;98110;-70
2024/03/28 09:53:56;;;;;;;;;;;;;;;30.71;40.16;97988.72;4941619;27;98344;-71
2024/03/28 09:56:23;;;;;;;;;;;;;;;31.45;39.76;97995.81;4913976;28;98554;-70
2024/03/28 09:58:51;;;;;;;;;;;;;;;32.20;39.82;97991.53;4921488;28;98294;-70
2024/03/28 10:01:17;;;;;;;;;;;;;;;33.22;39.34;97978.41;4919885;28;99043;-73
2024/03/28 10:03:48;;;;;;;;;;;;;;;34.05;38.99;97972.69;4944281;27;99943;-73
2024/03/28 10:06:15;;;;;;;;;;;;;;;34.77;38.71;97974.13;4942468;28;98331;-73
2024/03/28 10:08:42;;;;;;;;;;;;;;;35.61;38.37;97970.16;4940705;28;98569;-73
2024/03/28 10:11:09;;;;;;;;;;;;;;;36.22;38.14;97971.06;4936891;28;98233;-70
2024/03/28 10:13:38;;;;;;;;;;;;;;;36.96;38.05;97967.34;4957586;28;98413;-70
2024/03/28 10:16:06;;;;;;;;;;;;;;;37.71;37.85;97965.63;4922976;28;99001;-72
2024/03/28 10:18:32;;;;;;;;;;;;;;;38.50;37.79;97959.84;4945365;27;98541;-73
2024/03/28 10:20:59;;;;;;;;;;;;;;;39.04;37.69;97973.41;4931096;27;98488;-70
2024/03/28 10:23:26;;;;;;;;;;;;;;;38.66;37.98;97967.44;4919944;28;98802;-69
2024/03/28 10:25:53;;;;;;;;;;;;;;;39.29;37.68;97960.19;4943327;28;98018;-70
2024/03/28 10:28:34;;;;;;;;;;;;;;;39.58;37.84;97955.09;4941190;28;98524;-69
2024/03/28 10:31:01;;;;;;;;;;;;;;;40.49;37.44;97948.03;4941739;27;98230;-71
2024/03/28 10:33:27;;;;;;;;;;;;;;;41.26;37.22;97950.31;4933081;28;99094;-70
2024/03/28 10:35:57;;;;;;;;;;;;;;;41.57;37.14;97948.78;4926624;28;98057;-71
2024/03/28 10:38:23;;;;;;;;;;;;;;;42.09;36.90;97943.75;4930322;28;98519;-70
2024/03/28 10:40:50;;;;;;;;;;;;;;;42.43;36.95;97935.41;4935742;28;98373;-69
2024/03/28 10:43:17;;;;;;;;;;;;;;;42.66;36.82;97935.72;4929371;28;98142;-69
2024/03/28 10:45:44;;;;;;;;;;;;;;;42.85;37.01;97944.03;4952340;28;98778;-66
2024/03/28 10:48:19;;;;;;;;;;;;;;;42.81;36.82;97955.69;4961079;28;98242;-70
2024/03/28 10:51:17;;;;;;;;;;;;;;;41.96;37.41;97957.91;4956818;28;97989;-70
2024/03/28 10:54:07;;;;;;;;;;;;;;;41.84;37.79;97968.66;4956161;28;98108;-66
2024/03/28 10:56:33;;;;;;;;;;;;;;;41.40;37.81;97962.47;4922791;28;99976;-67
2024/03/28 10:59:03;;;;;;;;;;;;;;;41.00;38.30;97978.47;4943024;28;98200;-69
2024/03/28 11:01:32;;;;;;;;;;;;;;;40.57;38.56;97982.84;4940531;28;102845;-70
2024/03/28 11:04:02;;;;;;;;;;;;;;;40.20;38.52;97981.44;4933455;28;98201;-70
2024/03/28 11:06:28;;;;;;;;;;;;;;;39.82;38.85;98005.91;4063428;28;10000174;-70
2024/03/28 11:08:57;;;;;;;;;;;;;;;39.42;38.97;98004.66;4957139;27;98276;-66
2024/03/28 11:11:24;;;;;;;;;;;;;;;39.15;39.17;98009.94;4928386;28;99007;-70
2024/03/28 11:13:50;;;;;;;;;;;;;;;39.04;38.97;98016.41;4957612;28;98191;-66
2024/03/28 11:16:20;;;;;;;;;;;;;;;39.07;38.62;98028.69;4938236;28;100219;-66
2024/03/28 11:18:47;;;;;;;;;;;;;;;39.05;38.56;98028.41;4950949;28;100734;-66
2024/03/28 11:21:13;;;;;;;;;;;;;;;38.92;38.48;98033.88;4938617;27;98158;-67
2024/03/28 11:23:46;;;;;;;;;;;;;;;38.69;38.50;98033.16;4059250;27;10000733;-70
2024/03/28 11:26:18;;;;;;;;;;;;;;;38.33;38.91;98018.97;4957871;27;98392;-70
2024/03/28 11:28:45;;;;;;;;;;;;;;;38.07;39.12;98022.06;4946289;28;98318;-70
2024/03/28 11:31:13;;;;;;;;;;;;;;;37.82;38.81;98018.22;4920993;27;98471;-70
2024/03/28 11:33:40;;;;;;;;;;;;;;;37.51;39.55;98028.44;4940977;27;98760;-70
2024/03/28 11:36:10;;;;;;;;;;;;;;;37.24;39.37;98054.41;4942775;27;98417;-66
2024/03/28 11:38:37;;;;;;;;;;;;;;;36.98;39.37;98063.00;4928814;27;99616;-66
2024/03/28 11:41:07;;;;;;;;;;;;;;;36.69;39.73;98041.69;4928419;27;98109;-67
2024/03/28 11:43:33;;;;;;;;;;;;;;;36.43;39.55;98064.22;4929519;28;98436;-67
2024/03/28 11:46:00;;;;;;;;;;;;;;;36.23;40.06;98065.09;4920578;28;99304;-70
2024/03/28 11:48:32;;;;;;;;;;;;;;;36.03;39.91;98061.16;4939692;27;98061;-70
2024/03/28 11:50:58;;;;;;;;;;;;;;;35.81;39.96;98072.16;4939666;28;98527;-70
2024/03/28 11:53:24;;;;;;;;;;;;;;;35.59;40.04;98073.47;4955556;27;97945;-70
2024/03/28 11:55:51;;;;;;;;;;;;;;;35.38;39.96;98069.94;4944873;27;99166;-66
2024/03/28 11:58:20;;;;;;;;;;;;;;;34.45;40.58;98066.97;4940720;27;98427;-70
2024/03/28 12:00:47;;;;;;;;;;;;;;;34.07;40.62;98065.13;4958091;27;98258;-65
2024/03/28 12:03:13;;;;;;;;;;;;;;;34.44;40.06;98070.28;4941383;27;98616;-65
2024/03/28 12:05:39;;;;;;;;;;;;;;;33.56;41.16;98057.16;4954018;28;99102;-69
2024/03/28 12:08:06;;;;;;;;;;;;;;;33.50;40.29;98045.13;4908038;27;98396;-65
2024/03/28 12:10:33;;;;;;;;;;;;;;;33.75;40.36;98060.53;4059555;28;10001041;-69
2024/03/28 12:13:02;;;;;;;;;;;;;;;33.65;40.02;98049.47;4925420;28;98389;-69
2024/03/28 12:15:28;;;;;;;;;;;;;;;33.55;40.23;98036.09;4069282;28;10001044;-65
2024/03/28 12:17:58;;;;;;;;;;;;;;;33.45;40.36;98029.81;4932606;28;98462;-69
2024/03/28 12:20:25;;;;;;;;;;;;;;;33.35;40.23;98040.28;4924989;28;98365;-65
2024/03/28 12:22:55;;;;;;;;;;;;;;;33.33;39.78;98044.81;4924357;28;98198;-65
2024/03/28 12:25:25;;;;;;;;;;;;;;;33.37;39.70;98053.78;4933457;28;99990;-66
2024/03/28 12:27:58;;;;;;;;;;;;;;;33.36;39.85;98057.78;4904739;28;98505;-66
2024/03/28 12:30:25;;;;;;;;;;;;;;;32.61;40.71;98056.78;4916743;28;100805;-69
2024/03/28 12:33:05;;;;;;;;;;;;;;;31.94;41.23;98056.00;4920409;28;99353;-71
2024/03/28 12:35:34;;;;;;;;;;;;;;;31.09;41.68;98076.50;4922330;28;98339;-69
2024/03/28 12:38:03;;;;;;;;;;;;;;;30.37;41.88;98064.78;4906939;28;98123;-69
2024/03/28 12:40:30;;;;;;;;;;;;;;;29.73;42.17;98068.78;4925297;28;107980;-72
2024/03/28 12:42:59;;;;;;;;;;;;;;;29.15;42.47;98060.97;4930324;28;98345;-71
2024/03/28 12:45:26;;;;;;;;;;;;;;;28.57;42.64;98075.97;4902857;28;101951;-68
2024/03/28 12:47:54;;;;;;;;;;;;;;;28.10;42.57;98081.41;4935376;28;98236;-71
2024/03/28 12:50:24;;;;;;;;;;;;;;;27.79;42.66;98081.91;4919708;28;98309;-72
2024/03/28 12:52:51;;;;;;;;;;;;;;;27.48;42.78;98076.06;4913075;28;98518;-72
2024/03/28 12:55:18;;;;;;;;;;;;;;;27.19;42.71;98080.81;4919391;28;98142;-72